Time;durP1;ratioP1;P1;durP2;ratioP2;P2;SDS_P1;SDS_P2;PMS_P1;PMS_P2;Temp;Humidity;BMP_temperature;BMP_pressure;BME280_temperature;BME280_humidity;BME280_pressure;Samples;Min_cycle;Max_cycle;Signal;HPM_P1;HPM_P2
2021/04/03 00:02:28;;;;;;;101.12;44.38;;;;;;;2.75;62.53;98567.95;2158444;80;21741;-73
2021/04/03 00:05:30;;;;;;;96.87;39.85;;;;;;;2.75;62.24;98565.82;2196839;79;21161;-74
2021/04/03 00:08:32;;;;;;;79.62;36.50;;;;;;;2.76;62.24;98562.34;2196592;80;21288;-73
2021/04/03 00:11:34;;;;;;;69.22;29.70;;;;;;;2.76;62.29;98559.75;2203543;80;21114;-73
2021/04/03 00:14:36;;;;;;;63.30;24.12;;;;;;;2.73;62.39;98552.92;2171053;80;21315;-73
2021/04/03 00:17:38;;;;;;;56.92;23.12;;;;;;;2.65;62.71;98549.73;2199521;80;21597;-73
2021/04/03 00:20:40;;;;;;;53.45;20.80;;;;;;;2.66;62.75;98545.39;2208512;80;21289;-73
2021/04/03 00:23:42;;;;;;;56.42;23.40;;;;;;;2.64;62.74;98549.78;2192417;80;21297;-73
2021/04/03 00:26:44;;;;;;;55.15;22.35;;;;;;;2.64;62.72;98548.03;2205920;80;21594;-73
2021/04/03 00:29:46;;;;;;;51.30;21.33;;;;;;;2.65;62.92;98551.03;2199274;80;21764;-73
2021/04/03 00:32:48;;;;;;;55.45;23.10;;;;;;;2.69;62.98;98550.49;2199589;80;21301;-73
2021/04/03 00:35:50;;;;;;;88.03;33.63;;;;;;;2.67;63.11;98549.25;2191575;80;21298;-73
2021/04/03 00:38:52;;;;;;;91.65;34.80;;;;;;;2.70;62.85;98548.28;2193896;80;21289;-73
2021/04/03 00:41:55;;;;;;;96.10;36.13;;;;;;;2.68;62.61;98550.92;2195238;80;21229;-73
2021/04/03 00:44:56;;;;;;;98.07;36.20;;;;;;;2.58;62.58;98543.06;2211446;80;21314;-73
2021/04/03 00:47:58;;;;;;;76.40;29.32;;;;;;;2.54;62.76;98547.52;2206068;79;21296;-73
2021/04/03 00:51:01;;;;;;;72.32;25.75;;;;;;;2.50;62.90;98548.51;2209241;80;21737;-73
2021/04/03 00:54:03;;;;;;;70.55;26.87;;;;;;;2.46;63.05;98545.61;2212460;80;21301;-73
2021/04/03 00:57:05;;;;;;;63.68;26.35;;;;;;;2.47;63.06;98545.16;2195786;80;21301;-73
2021/04/03 01:00:07;;;;;;;93.65;32.35;;;;;;;2.47;63.10;98541.27;2194421;80;21280;-73
2021/04/03 01:03:09;;;;;;;75.08;28.47;;;;;;;2.45;62.89;98537.90;2193746;80;21312;-73
2021/04/03 01:06:11;;;;;;;61.50;23.73;;;;;;;2.42;63.16;98534.50;2210319;80;21266;-74
2021/04/03 01:09:13;;;;;;;60.45;23.47;;;;;;;2.43;63.15;98533.61;2210964;80;21162;-73
2021/04/03 01:12:15;;;;;;;53.87;22.58;;;;;;;2.40;63.27;98527.70;2200853;80;21293;-73
2021/04/03 01:15:17;;;;;;;76.17;28.35;;;;;;;2.40;63.64;98525.95;2198517;80;21394;-73
2021/04/03 01:18:19;;;;;;;60.50;24.50;;;;;;;2.55;64.00;98525.05;2212822;79;21360;-73
2021/04/03 01:21:21;;;;;;;61.90;22.25;;;;;;;2.68;63.49;98520.30;2198932;80;21308;-73
2021/04/03 01:24:24;;;;;;;58.58;21.60;;;;;;;2.67;63.41;98526.38;2208171;80;21184;-73
2021/04/03 01:27:26;;;;;;;61.68;23.07;;;;;;;2.65;63.84;98526.89;2209771;80;21780;-74
2021/04/03 01:30:28;;;;;;;58.08;23.52;;;;;;;2.68;63.87;98529.37;2206018;80;21931;-74
2021/04/03 01:33:30;;;;;;;60.17;24.72;;;;;;;2.65;63.82;98524.30;2205153;80;21695;-73
2021/04/03 01:36:32;;;;;;;58.05;24.40;;;;;;;2.71;63.91;98527.50;2195964;80;21734;-74
2021/04/03 01:39:34;;;;;;;56.77;24.10;;;;;;;2.90;63.86;98525.16;2210366;80;21298;-73
2021/04/03 01:42:36;;;;;;;59.58;25.23;;;;;;;3.10;63.80;98519.27;2205915;80;21295;-73
2021/04/03 01:45:38;;;;;;;58.00;24.57;;;;;;;3.20;63.63;98508.10;2197883;80;21289;-73
2021/04/03 01:48:40;;;;;;;49.60;21.87;;;;;;;3.34;63.47;98511.97;2186088;79;21301;-74
2021/04/03 01:51:42;;;;;;;56.35;22.98;;;;;;;3.38;63.51;98502.71;2213336;79;21273;-73
2021/04/03 01:54:44;;;;;;;56.28;23.30;;;;;;;3.42;63.43;98505.59;2199197;80;21718;-73
2021/04/03 01:57:47;;;;;;;55.15;23.92;;;;;;;3.44;63.47;98499.05;2207497;80;21700;-73
2021/04/03 02:00:49;;;;;;;58.48;23.65;;;;;;;3.49;63.39;98504.89;2203184;80;21301;-73
2021/04/03 02:03:50;;;;;;;57.53;23.40;;;;;;;3.57;63.37;98503.33;2166841;80;21750;-73
2021/04/03 02:06:52;;;;;;;61.28;25.40;;;;;;;3.55;63.25;98501.22;2174226;80;21293;-73
2021/04/03 02:09:54;;;;;;;58.48;23.92;;;;;;;3.51;63.25;98495.79;2208816;80;21622;-73
2021/04/03 02:12:56;;;;;;;57.45;24.77;;;;;;;3.46;63.35;98495.50;2193061;80;21309;-73
2021/04/03 02:15:58;;;;;;;60.12;26.30;;;;;;;3.45;63.71;98502.05;2201615;80;21308;-73
2021/04/03 02:19:00;;;;;;;55.73;24.05;;;;;;;3.50;64.32;98496.22;2192201;79;21300;-73
2021/04/03 02:22:02;;;;;;;58.48;23.12;;;;;;;3.62;64.39;98498.36;2188355;80;21284;-73
2021/04/03 02:25:04;;;;;;;51.75;23.40;;;;;;;3.70;64.28;98500.66;2203022;79;21311;-73
2021/04/03 02:28:06;;;;;;;51.80;23.47;;;;;;;3.77;64.12;98498.22;2211165;79;21737;-73
2021/04/03 02:31:09;;;;;;;49.77;22.00;;;;;;;3.89;64.07;98511.62;2201131;79;21182;-73
2021/04/03 02:34:11;;;;;;;52.83;22.93;;;;;;;3.65;63.98;98516.86;2185290;80;21280;-73
2021/04/03 02:37:13;;;;;;;56.80;24.45;;;;;;;3.42;64.48;98524.17;2209901;80;21135;-73
2021/04/03 02:40:15;;;;;;;48.30;22.20;;;;;;;3.32;64.47;98517.64;2207165;79;21293;-72
2021/04/03 02:43:17;;;;;;;52.93;23.30;;;;;;;3.21;64.55;98511.56;2213997;80;21621;-73
2021/04/03 02:46:19;;;;;;;49.33;22.95;;;;;;;3.22;64.70;98505.45;2194356;79;21281;-73
2021/04/03 02:49:21;;;;;;;52.93;23.73;;;;;;;3.14;64.72;98504.45;2176757;80;21175;-73
2021/04/03 02:52:23;;;;;;;54.08;23.47;;;;;;;3.03;64.55;98503.55;2206401;80;21293;-73
2021/04/03 02:55:25;;;;;;;50.73;23.02;;;;;;;3.10;64.48;98502.86;2201306;80;21344;-73
2021/04/03 02:58:27;;;;;;;55.58;23.50;;;;;;;3.10;64.31;98495.09;2203682;79;21269;-73
2021/04/03 03:01:30;;;;;;;52.85;23.52;;;;;;;3.15;64.36;98493.19;2205799;80;21292;-73
2021/04/03 03:04:31;;;;;;;65.78;27.93;;;;;;;3.24;64.37;98501.08;2196573;80;21335;-74
2021/04/03 03:07:34;;;;;;;67.58;29.42;;;;;;;3.17;64.26;98499.15;2201795;80;21278;-73
2021/04/03 03:10:36;;;;;;;66.25;28.80;;;;;;;3.11;64.16;98494.19;2196240;80;21292;-74
2021/04/03 03:13:38;;;;;;;54.10;24.40;;;;;;;3.05;64.38;98491.83;2204326;80;21301;-73
2021/04/03 03:16:39;;;;;;;54.55;24.72;;;;;;;3.01;64.38;98489.78;2194235;80;21370;-74
2021/04/03 03:19:42;;;;;;;55.63;25.30;;;;;;;3.01;64.64;98486.36;2197434;80;21293;-74
2021/04/03 03:22:43;;;;;;;51.83;25.55;;;;;;;3.04;64.52;98484.48;2193697;80;21290;-73
2021/04/03 03:25:46;;;;;;;55.10;24.32;;;;;;;3.11;64.38;98485.95;2199627;80;21304;-74
2021/04/03 03:28:48;;;;;;;;;;;;;;;3.05;64.39;98486.19;2194358;80;21356;-74
2021/04/03 03:31:51;;;;;;;58.95;26.40;;;;;;;3.10;64.60;98482.99;2211706;80;20296;-74
2021/04/03 03:34:53;;;;;;;65.25;28.50;;;;;;;3.06;64.63;98489.61;2211018;80;21296;-74
2021/04/03 03:37:55;;;;;;;58.25;25.97;;;;;;;2.86;64.94;98483.41;2171680;80;21312;-74
2021/04/03 03:40:57;;;;;;;57.13;24.12;;;;;;;2.85;64.99;98482.17;2194092;80;21756;-74
2021/04/03 03:43:59;;;;;;;59.03;27.05;;;;;;;2.81;64.95;98482.71;2195410;80;21313;-74
2021/04/03 03:47:02;;;;;;;53.02;24.23;;;;;;;2.96;65.19;98482.64;2170978;80;21163;-74
2021/04/03 03:50:04;;;;;;;54.42;24.57;;;;;;;2.86;64.85;98486.43;2195037;80;21848;-74
2021/04/03 03:53:06;;;;;;;55.70;24.67;;;;;;;2.56;65.07;98491.33;2174416;80;21644;-73
2021/04/03 03:56:08;;;;;;;55.40;26.27;;;;;;;2.42;65.14;98491.78;2204841;80;21179;-74
2021/04/03 03:59:10;;;;;;;57.48;25.60;;;;;;;2.37;65.80;98487.22;2206693;80;21271;-74
2021/04/03 04:02:12;;;;;;;61.05;26.90;;;;;;;2.39;66.09;98498.36;2190923;80;21284;-74
2021/04/03 04:05:14;;;;;;;57.40;25.48;;;;;;;2.55;65.99;98491.38;2200302;80;21308;-74
2021/04/03 04:08:18;;;;;;;58.25;24.98;;;;;;;2.37;65.69;98493.69;2202006;80;21815;-74
2021/04/03 04:11:20;;;;;;;55.83;25.08;;;;;;;2.27;65.91;98495.33;2155245;79;21271;-74
2021/04/03 04:14:22;;;;;;;56.83;25.17;;;;;;;2.17;66.08;98496.06;2197769;79;21757;-74
2021/04/03 04:17:24;;;;;;;53.92;24.43;;;;;;;2.19;66.63;98495.58;2192897;80;21291;-74
2021/04/03 04:20:26;;;;;;;54.15;25.35;;;;;;;2.30;66.49;98494.80;2200321;80;21717;-74
2021/04/03 04:23:28;;;;;;;61.08;25.75;;;;;;;2.45;66.44;98501.20;2202271;80;21403;-74
2021/04/03 04:26:30;;;;;;;55.80;26.07;;;;;;;2.51;66.66;98497.09;2206444;80;21308;-74
2021/04/03 04:29:32;;;;;;;58.17;27.07;;;;;;;2.67;66.71;98500.05;2199690;80;21299;-74
2021/04/03 04:32:34;;;;;;;57.40;26.73;;;;;;;2.84;66.63;98494.72;2193878;80;21721;-74
2021/04/03 04:35:36;;;;;;;60.00;28.50;;;;;;;2.95;66.45;98497.78;2200736;80;21273;-74
2021/04/03 04:38:38;;;;;;;65.35;28.47;;;;;;;3.04;66.77;98500.50;2196166;80;21289;-74
2021/04/03 04:41:40;;;;;;;61.15;28.45;;;;;;;3.07;67.10;98501.68;2205631;80;21295;-73
2021/04/03 04:44:42;;;;;;;55.70;26.90;;;;;;;2.88;67.63;98507.97;2198787;79;21299;-73
2021/04/03 04:47:44;;;;;;;62.73;27.13;;;;;;;2.70;68.66;98509.43;2204279;80;21281;-73
2021/04/03 04:50:46;;;;;;;60.50;27.93;;;;;;;2.51;69.28;98514.39;2207028;80;21646;-73
2021/04/03 04:53:47;;;;;;;58.08;25.97;;;;;;;2.41;69.84;98512.12;2211718;79;21737;-73
2021/04/03 04:56:49;;;;;;;59.15;26.42;;;;;;;2.38;70.08;98521.25;2204951;80;21309;-73
2021/04/03 04:59:52;;;;;;;59.55;27.67;;;;;;;2.35;70.92;98516.64;2209417;79;21301;-73
2021/04/03 05:02:54;;;;;;;54.20;24.82;;;;;;;2.38;70.22;98519.12;2190799;80;21241;-73
2021/04/03 05:05:57;;;;;;;57.58;27.58;;;;;;;2.43;70.68;98519.83;2210003;80;21325;-73
2021/04/03 05:08:59;;;;;;;56.33;26.02;;;;;;;2.46;70.52;98522.31;2201379;80;21320;-73
2021/04/03 05:12:01;;;;;;;55.85;25.12;;;;;;;2.52;71.21;98529.87;2154715;80;21300;-73
2021/04/03 05:15:03;;;;;;;58.48;25.90;;;;;;;2.54;71.79;98527.23;2206809;80;21329;-73
2021/04/03 05:18:06;;;;;;;59.65;26.85;;;;;;;2.55;71.35;98532.35;2197487;80;21323;-73
2021/04/03 05:21:08;;;;;;;53.35;23.73;;;;;;;2.64;71.71;98530.36;2188607;79;21726;-73
2021/04/03 05:24:09;;;;;;;55.78;24.72;;;;;;;2.72;71.61;98532.25;2211797;80;21737;-73
2021/04/03 05:27:12;;;;;;;51.63;24.37;;;;;;;2.81;72.48;98536.27;2201949;80;21328;-73
2021/04/03 05:30:14;;;;;;;51.70;23.25;;;;;;;2.86;71.67;98533.06;2197915;79;21188;-73
2021/04/03 05:33:16;;;;;;;54.77;24.55;;;;;;;2.91;73.32;98537.64;2210799;80;21270;-73
2021/04/03 05:36:18;;;;;;;53.68;24.47;;;;;;;2.89;73.98;98539.46;2199415;80;21356;-73
2021/04/03 05:39:20;;;;;;;56.08;25.00;;;;;;;2.90;75.12;98545.02;2200637;80;21753;-73
2021/04/03 05:42:22;;;;;;;52.23;22.73;;;;;;;2.90;76.18;98549.77;2192189;80;21583;-73
2021/04/03 05:45:24;;;;;;;55.75;24.72;;;;;;;2.85;76.41;98547.77;2198032;80;21305;-73
2021/04/03 05:48:26;;;;;;;53.52;24.37;;;;;;;2.85;75.84;98555.55;2202476;80;21389;-73
2021/04/03 05:51:28;;;;;;;54.73;23.83;;;;;;;2.84;77.60;98553.84;2199909;80;21324;-73
2021/04/03 05:54:30;;;;;;;51.15;22.17;;;;;;;2.81;77.68;98556.54;2207007;80;21305;-73
2021/04/03 05:57:32;;;;;;;51.18;23.32;;;;;;;2.79;78.37;98568.71;2214251;80;21158;-73
2021/04/03 06:00:34;;;;;;;53.42;23.62;;;;;;;2.72;78.95;98565.47;2202845;80;21319;-73
2021/04/03 06:03:36;;;;;;;48.23;19.17;;;;;;;2.67;79.86;98574.28;2204338;80;21304;-73
2021/04/03 06:06:38;;;;;;;47.62;21.35;;;;;;;2.62;80.26;98575.73;2207200;79;21717;-73
2021/04/03 06:09:40;;;;;;;49.58;22.62;;;;;;;2.58;81.01;98576.73;2202028;80;21727;-73
2021/04/03 06:12:42;;;;;;;41.15;18.85;;;;;;;2.60;81.40;98576.22;2203896;80;21321;-73
2021/04/03 06:15:44;;;;;;;41.98;17.30;;;;;;;2.60;82.91;98583.98;2197238;80;21297;-73
2021/04/03 06:18:46;;;;;;;40.20;16.32;;;;;;;2.62;82.96;98585.26;2210127;79;21289;-74
2021/04/03 06:21:48;;;;;;;37.93;16.48;;;;;;;2.59;82.76;98592.67;2205958;80;21293;-74
2021/04/03 06:24:50;;;;;;;34.90;15.72;;;;;;;2.56;82.95;98589.73;2196887;80;21277;-74
2021/04/03 06:27:52;;;;;;;34.65;14.68;;;;;;;2.59;83.01;98590.91;2185588;80;21307;-73
2021/04/03 06:30:54;;;;;;;29.95;12.85;;;;;;;2.61;83.14;98594.75;2203569;80;21281;-73
2021/04/03 06:33:56;;;;;;;29.48;12.73;;;;;;;2.68;83.68;98600.13;2212520;80;21333;-73
2021/04/03 06:36:58;;;;;;;29.23;11.85;;;;;;;2.77;82.96;98597.25;2177206;80;21166;-74
2021/04/03 06:40:00;;;;;;;27.77;10.72;;;;;;;2.85;83.20;98600.04;2172926;79;21269;-73
2021/04/03 06:43:02;;;;;;;25.65;9.93;;;;;;;2.90;82.96;98595.53;2186037;80;21580;-73
2021/04/03 06:46:04;;;;;;;25.12;9.05;;;;;;;2.95;82.58;98596.24;2192429;80;21319;-73
2021/04/03 06:49:07;;;;;;;25.43;9.80;;;;;;;3.05;83.38;98605.85;2191122;80;21728;-74
2021/04/03 06:52:09;;;;;;;25.55;9.70;;;;;;;3.16;82.82;98600.28;2202533;80;21615;-74
2021/04/03 06:55:11;;;;;;;22.85;9.30;;;;;;;3.22;83.37;98602.66;2200192;80;21792;-71
2021/04/03 06:58:13;;;;;;;23.25;8.88;;;;;;;3.31;81.11;98613.19;2159544;80;21292;-73
2021/04/03 07:01:15;;;;;;;23.70;9.18;;;;;;;3.34;81.32;98611.31;2211352;80;21289;-73
2021/04/03 07:04:17;;;;;;;20.30;8.10;;;;;;;3.31;81.03;98616.61;2212308;80;21745;-72
2021/04/03 07:07:19;;;;;;;23.20;8.50;;;;;;;3.26;81.85;98613.32;2207885;80;21732;-73
2021/04/03 07:10:21;;;;;;;22.42;8.50;;;;;;;3.27;82.30;98611.97;2201370;80;21292;-72
2021/04/03 07:13:23;;;;;;;22.30;8.93;;;;;;;3.24;81.89;98621.16;2207468;79;21297;-72
2021/04/03 07:16:26;;;;;;;21.62;8.23;;;;;;;3.30;81.50;98614.91;2206510;80;21307;-72
2021/04/03 07:19:28;;;;;;;23.38;8.45;;;;;;;3.35;80.67;98624.69;2203698;80;21309;-72
2021/04/03 07:22:30;;;;;;;22.62;8.60;;;;;;;3.44;80.01;98621.76;2208908;80;21340;-72
2021/04/03 07:25:32;;;;;;;23.38;8.73;;;;;;;3.53;79.97;98628.83;2198181;79;21317;-73
2021/04/03 07:28:34;;;;;;;23.20;8.73;;;;;;;3.60;79.97;98625.95;2206490;80;21303;-72
2021/04/03 07:31:36;;;;;;;22.82;8.33;;;;;;;3.67;78.89;98633.53;2180144;80;21285;-72
2021/04/03 07:34:38;;;;;;;24.40;9.30;;;;;;;3.66;79.74;98633.12;2206696;80;21293;-73
2021/04/03 07:37:41;;;;;;;25.17;9.23;;;;;;;3.70;80.02;98643.79;2196623;80;21289;-73
2021/04/03 07:40:43;;;;;;;21.70;8.35;;;;;;;3.70;79.81;98643.33;2207266;80;21293;-72
2021/04/03 07:43:46;;;;;;;22.27;8.53;;;;;;;3.80;79.00;98643.85;2210694;80;21151;-72
2021/04/03 07:46:49;;;;;;;22.70;9.53;;;;;;;3.86;78.44;98655.30;2205486;80;21338;-73
2021/04/03 07:49:51;;;;;;;23.57;8.83;;;;;;;3.88;79.33;98650.91;2199464;80;21312;-73
2021/04/03 07:52:53;;;;;;;25.17;9.50;;;;;;;3.86;79.77;98663.08;2170465;80;21291;-73
2021/04/03 07:55:55;;;;;;;22.75;9.00;;;;;;;3.73;79.58;98672.21;2207934;80;21315;-73
2021/04/03 07:58:57;;;;;;;24.65;9.88;;;;;;;3.69;80.62;98671.45;2206349;80;21288;-73
2021/04/03 08:01:59;;;;;;;24.65;9.83;;;;;;;3.63;81.12;98666.50;2203454;80;21292;-72
2021/04/03 08:05:01;;;;;;;26.60;10.40;;;;;;;3.53;79.74;98667.73;2207263;80;21721;-72
2021/04/03 08:08:03;;;;;;;25.32;9.80;;;;;;;3.53;80.42;98681.53;2202756;80;21317;-73
2021/04/03 08:11:05;;;;;;;25.55;9.50;;;;;;;3.45;80.73;98675.78;2177347;80;21299;-72
2021/04/03 08:14:07;;;;;;;29.65;10.70;;;;;;;3.40;81.68;98689.34;2188257;80;21317;-72
2021/04/03 08:17:10;;;;;;;26.07;10.80;;;;;;;3.36;81.39;98674.35;2191367;80;21736;-72
2021/04/03 08:20:12;;;;;;;28.35;10.88;;;;;;;3.35;82.62;98678.27;2208323;80;21737;-73
2021/04/03 08:23:14;;;;;;;25.48;10.78;;;;;;;3.34;83.02;98686.50;2197540;79;21284;-72
2021/04/03 08:26:16;;;;;;;27.27;10.20;;;;;;;3.29;83.54;98683.23;2198709;79;21308;-72
2021/04/03 08:29:18;;;;;;;27.05;10.70;;;;;;;3.21;84.83;98695.14;2177047;80;21285;-72
2021/04/03 08:32:20;;;;;;;28.47;11.65;;;;;;;3.11;84.84;98699.77;2204331;80;21299;-72
2021/04/03 08:35:22;;;;;;;26.90;10.75;;;;;;;3.06;83.79;98695.20;2204472;79;21284;-73
2021/04/03 08:38:24;;;;;;;27.35;10.65;;;;;;;3.03;84.92;98696.60;2182986;80;21177;-73
2021/04/03 08:41:27;;;;;;;;;;;;;;;3.05;83.50;98700.44;2208654;80;21733;-73
2021/04/03 08:44:29;;;;;;;27.40;12.03;;;;;;;3.10;84.62;98705.87;2209213;80;20254;-72
2021/04/03 08:47:32;;;;;;;25.77;11.00;;;;;;;3.15;83.27;98702.25;2201627;80;21293;-72
2021/04/03 08:50:34;;;;;;;24.30;10.15;;;;;;;3.22;82.44;98698.56;2198499;79;21303;-72
2021/04/03 08:53:36;;;;;;;26.50;10.58;;;;;;;3.29;82.28;98703.98;2197325;79;21293;-72
2021/04/03 08:56:38;;;;;;;23.73;8.78;;;;;;;3.40;81.97;98704.89;2200399;80;21761;-73
2021/04/03 08:59:40;;;;;;;23.27;8.53;;;;;;;3.60;80.65;98711.54;2207334;80;21305;-72
2021/04/03 09:02:42;;;;;;;21.65;8.08;;;;;;;3.60;80.65;98711.54;2214213;80;21285;-73
2021/04/03 09:05:45;;;;;;;22.48;8.03;;;;;;;3.68;80.62;98720.37;2210906;79;21575;-73
2021/04/03 09:08:47;;;;;;;23.55;7.92;;;;;;;3.65;79.98;98716.59;2212414;80;21358;-72
2021/04/03 09:11:49;;;;;;;20.50;7.17;;;;;;;3.68;80.18;98728.16;2197024;80;21316;-73
2021/04/03 09:14:53;;;;;;;20.55;7.15;;;;;;;3.65;79.73;98728.27;2168106;80;21261;-73
2021/04/03 09:17:56;;;;;;;19.92;7.05;;;;;;;3.57;79.69;98732.40;2197995;80;21286;-72
2021/04/03 09:20:58;;;;;;;22.02;7.28;;;;;;;3.59;80.01;98741.42;2202835;80;21162;-73
2021/04/03 09:24:00;;;;;;;22.35;7.47;;;;;;;3.51;79.92;98749.94;2207257;80;21389;-72
2021/04/03 09:27:03;;;;;;;20.37;6.83;;;;;;;3.46;80.23;98744.88;2196515;79;21311;-72
2021/04/03 09:30:05;;;;;;;20.17;7.33;;;;;;;3.39;80.10;98751.16;2200495;79;21304;-73
2021/04/03 09:33:08;;;;;;;17.52;5.33;;;;;;;3.36;80.62;98775.91;2190860;80;21295;-73
2021/04/03 09:36:10;;;;;;;;;;;;;;;3.30;79.69;98771.76;2213619;80;21817;-72
2021/04/03 09:39:12;;;;;;;15.73;4.90;;;;;;;3.22;79.71;98763.38;2171006;80;20161;-73
2021/04/03 09:42:14;;;;;;;15.20;4.42;;;;;;;3.24;80.60;98766.31;2182538;80;21509;-73
2021/04/03 09:45:16;;;;;;;13.75;4.08;;;;;;;3.26;79.53;98783.12;2204643;80;21309;-73
2021/04/03 09:48:18;;;;;;;15.38;4.37;;;;;;;3.21;79.37;98784.57;2193778;80;21337;-73
2021/04/03 09:51:21;;;;;;;17.95;4.90;;;;;;;3.18;78.85;98795.50;2197186;80;21299;-72
2021/04/03 09:54:23;;;;;;;17.42;4.60;;;;;;;3.18;79.39;98797.63;2204715;80;21139;-73
2021/04/03 09:57:25;;;;;;;15.32;4.35;;;;;;;3.20;79.63;98805.36;2196056;80;21191;-73
2021/04/03 10:00:27;;;;;;;15.60;4.72;;;;;;;3.25;79.85;98803.48;2190477;80;21304;-73
2021/04/03 10:03:29;;;;;;;14.95;4.83;;;;;;;3.30;79.18;98808.05;2196627;80;21159;-72
2021/04/03 10:06:31;;;;;;;15.63;4.30;;;;;;;3.27;79.26;98817.23;2209600;80;21309;-73
2021/04/03 10:09:33;;;;;;;14.28;4.42;;;;;;;3.32;79.64;98813.19;2203980;80;21295;-73
2021/04/03 10:12:35;;;;;;;15.32;4.45;;;;;;;3.37;79.22;98819.92;2192444;80;21285;-73
2021/04/03 10:15:37;;;;;;;16.17;4.10;;;;;;;3.36;79.43;98825.16;2206854;80;21254;-73
2021/04/03 10:18:39;;;;;;;14.58;3.98;;;;;;;3.39;79.42;98829.82;2200870;80;21295;-73
2021/04/03 10:21:41;;;;;;;14.33;4.03;;;;;;;3.43;79.50;98843.52;2201037;79;21693;-73
2021/04/03 10:24:43;;;;;;;14.50;3.75;;;;;;;3.46;79.14;98841.69;2204473;78;21297;-73
2021/04/03 10:27:45;;;;;;;14.95;3.98;;;;;;;3.61;79.21;98832.56;2198293;80;21251;-73
2021/04/03 10:30:49;;;;;;;11.50;3.70;;;;;;;3.80;79.48;98830.66;2169602;80;21283;-73
2021/04/03 10:33:51;;;;;;;15.23;4.20;;;;;;;3.98;79.04;98833.10;2197100;80;21299;-72
2021/04/03 10:36:53;;;;;;;16.60;4.83;;;;;;;4.18;78.59;98835.45;2205248;80;21198;-73
2021/04/03 10:39:57;;;;;;;17.55;5.42;;;;;;;4.16;77.71;98841.53;2180458;80;21156;-73
2021/04/03 10:42:59;;;;;;;18.50;6.05;;;;;;;4.12;77.88;98843.86;2193415;80;21300;-74
2021/04/03 10:46:01;;;;;;;17.82;5.42;;;;;;;4.10;77.74;98850.84;2196905;80;21171;-73
2021/04/03 10:49:03;;;;;;;18.15;5.87;;;;;;;4.10;78.30;98844.34;2184730;80;21336;-74
2021/04/03 10:52:05;;;;;;;19.77;6.78;;;;;;;4.15;78.38;98855.86;2198930;80;21244;-73
2021/04/03 10:55:07;;;;;;;19.67;6.37;;;;;;;4.00;76.50;98855.95;2194889;80;21296;-73
2021/04/03 10:58:09;;;;;;;21.23;7.47;;;;;;;3.81;77.49;98854.42;2203230;80;21307;-74
2021/04/03 11:01:11;;;;;;;21.75;7.35;;;;;;;3.97;78.13;98853.45;2211762;80;21289;-73
2021/04/03 11:04:13;;;;;;;21.90;7.83;;;;;;;4.21;78.43;98853.08;2196387;80;21749;-74
2021/04/03 11:07:15;;;;;;;22.90;8.75;;;;;;;4.47;77.67;98846.12;2200068;79;21299;-74
2021/04/03 11:10:17;;;;;;;23.10;8.35;;;;;;;4.74;77.96;98859.87;2208209;80;21300;-73
2021/04/03 11:13:20;;;;;;;20.27;7.83;;;;;;;4.82;76.06;98855.21;2203840;80;21694;-73
2021/04/03 11:16:22;;;;;;;22.73;8.53;;;;;;;4.86;76.92;98847.70;2194744;80;21292;-74
2021/04/03 11:19:24;;;;;;;22.85;7.87;;;;;;;4.98;74.11;98856.78;2188304;80;21293;-74
2021/04/03 11:22:26;;;;;;;23.00;8.45;;;;;;;5.14;75.07;98853.61;2170340;80;21732;-73
2021/04/03 11:25:28;;;;;;;23.32;8.50;;;;;;;5.37;74.54;98853.58;2212065;79;21733;-73
2021/04/03 11:28:30;;;;;;;25.15;8.90;;;;;;;5.71;74.41;98846.17;2210037;80;21188;-73
2021/04/03 11:31:32;;;;;;;23.22;8.83;;;;;;;6.02;73.89;98850.99;2191092;80;21287;-73
2021/04/03 11:34:34;;;;;;;23.50;8.65;;;;;;;6.28;72.31;98860.77;2191536;80;21313;-73
2021/04/03 11:37:36;;;;;;;25.25;8.65;;;;;;;6.43;71.23;98861.84;2151783;80;21292;-74
2021/04/03 11:40:38;;;;;;;22.20;8.40;;;;;;;6.59;71.35;98847.69;2209626;80;21704;-72
2021/04/03 11:43:40;;;;;;;22.07;7.72;;;;;;;6.98;71.98;98840.28;2186551;80;21820;-73
2021/04/03 11:46:42;;;;;;;21.75;7.10;;;;;;;7.47;71.76;98841.06;2188997;80;21331;-73
2021/04/03 11:49:45;;;;;;;19.48;6.17;;;;;;;7.66;67.00;98835.80;2200833;80;21158;-72
2021/04/03 11:52:47;;;;;;;20.52;6.58;;;;;;;7.68;63.14;98840.94;2206624;80;21277;-72
2021/04/03 11:55:49;;;;;;;19.75;6.40;;;;;;;7.73;65.67;98848.06;2210216;80;21297;-73
2021/04/03 11:58:51;;;;;;;19.92;6.37;;;;;;;8.02;65.87;98830.13;2202913;79;21733;-72
2021/04/03 12:01:53;;;;;;;21.50;6.58;;;;;;;7.98;63.90;98840.70;2199067;80;21324;-72
2021/04/03 12:04:57;;;;;;;20.57;6.78;;;;;;;7.91;62.98;98830.66;2203685;80;21364;-73
2021/04/03 12:07:59;;;;;;;20.50;6.40;;;;;;;7.92;63.36;98847.55;2203559;80;21736;-73
2021/04/03 12:11:01;;;;;;;21.55;6.85;;;;;;;7.79;64.20;98837.34;2174241;80;21295;-72
2021/04/03 12:14:03;;;;;;;19.52;6.58;;;;;;;7.59;63.81;98847.45;2212137;80;21312;-73
2021/04/03 12:17:05;;;;;;;20.30;6.45;;;;;;;7.39;64.76;98840.58;2204737;79;21694;-72
2021/04/03 12:20:07;;;;;;;23.75;7.55;;;;;;;7.07;65.60;98842.95;2199458;80;21300;-73
2021/04/03 12:23:09;;;;;;;19.07;6.53;;;;;;;6.73;65.39;98854.90;2163210;80;21721;-73
2021/04/03 12:26:12;;;;;;;18.80;6.42;;;;;;;6.33;65.89;98866.61;2140418;81;21303;-73
2021/04/03 12:29:14;;;;;;;18.62;6.03;;;;;;;6.09;66.61;98867.66;2172055;80;21653;-73
2021/04/03 12:32:16;;;;;;;18.40;5.28;;;;;;;5.85;68.94;98882.89;2130884;83;21312;-72
2021/04/03 12:35:18;;;;;;;18.15;5.70;;;;;;;5.26;69.21;98886.95;2123390;83;21287;-72
2021/04/03 12:38:21;;;;;;;23.50;7.62;;;;;;;5.14;70.86;98858.80;2127469;82;21740;-73
2021/04/03 12:41:23;;;;;;;19.77;6.67;;;;;;;5.52;71.94;98840.41;2107067;83;21281;-73
2021/04/03 12:44:25;;;;;;;19.02;5.03;;;;;;;6.12;71.95;98834.97;2139625;83;21811;-73
2021/04/03 12:47:27;;;;;;;13.62;4.20;;;;;;;6.62;69.24;98841.03;2129170;82;21316;-72
2021/04/03 12:50:29;;;;;;;16.85;4.72;;;;;;;7.03;67.10;98827.88;2126511;83;21315;-73
2021/04/03 12:53:32;;;;;;;;;;;;;;;7.60;66.83;98826.49;2132972;83;21749;-73
2021/04/03 12:56:34;;;;;;;13.72;4.45;;;;;;;8.10;65.98;98820.13;2122728;82;21256;-73
2021/04/03 12:59:36;;;;;;;17.25;5.03;;;;;;;8.41;64.35;98818.08;2118981;82;21752;-73
2021/04/03 13:02:38;;;;;;;16.97;4.85;;;;;;;8.64;64.36;98818.68;2126259;83;21832;-72
2021/04/03 13:05:40;;;;;;;17.35;5.25;;;;;;;8.62;63.28;98817.90;2135241;83;21316;-72
2021/04/03 13:08:42;;;;;;;18.42;5.78;;;;;;;8.72;63.88;98824.35;2125116;83;21324;-72
2021/04/03 13:11:44;;;;;;;15.58;4.95;;;;;;;9.11;63.00;98818.35;2131915;83;21297;-73
2021/04/03 13:14:47;;;;;;;17.77;5.37;;;;;;;9.41;61.80;98816.24;2128815;82;21315;-73
2021/04/03 13:17:49;;;;;;;15.10;4.60;;;;;;;9.57;60.38;98810.53;2125995;82;21295;-73
2021/04/03 13:20:52;;;;;;;17.87;5.08;;;;;;;9.83;62.85;98809.50;2118759;83;21308;-72
2021/04/03 13:23:54;;;;;;;16.10;4.58;;;;;;;10.05;59.94;98805.97;2133147;82;21169;-73
2021/04/03 13:26:56;;;;;;;17.05;5.08;;;;;;;10.13;59.00;98804.23;2114672;83;21308;-72
2021/04/03 13:29:58;;;;;;;18.02;4.78;;;;;;;10.13;59.78;98800.74;2202077;79;21245;-72
2021/04/03 13:33:00;;;;;;;13.80;3.33;;;;;;;10.15;56.18;98818.07;2175588;80;21376;-72
2021/04/03 13:36:02;;;;;;;13.93;3.98;;;;;;;9.91;53.91;98807.25;2199988;80;21288;-72
2021/04/03 13:39:04;;;;;;;14.63;3.85;;;;;;;9.93;54.87;98812.40;2206894;80;21301;-72
2021/04/03 13:42:06;;;;;;;15.15;3.85;;;;;;;10.03;55.58;98800.47;2199878;80;21291;-72
2021/04/03 13:45:08;;;;;;;13.75;3.45;;;;;;;10.12;53.61;98795.98;2202383;79;21748;-72
2021/04/03 13:48:10;;;;;;;10.40;3.37;;;;;;;9.68;53.73;98798.98;2214408;80;21304;-72
2021/04/03 13:51:12;;;;;;;12.18;3.25;;;;;;;9.33;52.64;98806.22;2208778;80;21260;-73
2021/04/03 13:54:15;;;;;;;9.93;2.87;;;;;;;9.09;54.98;98807.95;2190059;80;21724;-72
2021/04/03 13:57:17;;;;;;;10.98;3.00;;;;;;;8.96;52.35;98808.25;2205119;80;21167;-73
2021/04/03 14:00:19;;;;;;;9.13;2.60;;;;;;;8.62;53.31;98808.30;2190032;79;21285;-72
2021/04/03 14:03:23;;;;;;;8.20;2.20;;;;;;;8.28;51.69;98822.27;2169897;80;21147;-72
2021/04/03 14:06:25;;;;;;;12.47;3.27;;;;;;;8.12;53.01;98808.67;2201697;80;21262;-72
2021/04/03 14:09:27;;;;;;;7.15;2.22;;;;;;;7.93;52.83;98815.74;2207562;80;21318;-73
2021/04/03 14:12:29;;;;;;;11.75;2.50;;;;;;;7.64;51.57;98831.09;2174307;80;21304;-73